Time;durP1;ratioP1;P1;durP2;ratioP2;P2;SDS_P1;SDS_P2;PMS_P1;PMS_P2;Temp;Humidity;BMP_temperature;BMP_pressure;BME280_temperature;BME280_humidity;BME280_pressure;Samples;Min_cycle;Max_cycle;Signal;HPM_P1;HPM_P2
2022/03/09 00:00:53;;;;;;;26.97;9.70;;;;;;;2.72;79.11;100670.66;4192204;28;22325;-67
2022/03/09 00:03:22;;;;;;;22.30;9.60;;;;;;;2.81;78.98;100664.00;4190267;28;20242;-68
2022/03/09 00:05:49;;;;;;;26.40;9.77;;;;;;;2.80;79.04;100660.53;4195965;28;22506;-67
2022/03/09 00:08:15;;;;;;;23.07;9.60;;;;;;;2.84;78.78;100663.84;4196732;28;20248;-69
2022/03/09 00:10:42;;;;;;;24.17;9.70;;;;;;;2.83;78.80;100660.34;4204095;28;20604;-68
2022/03/09 00:13:08;;;;;;;27.10;9.90;;;;;;;2.84;78.86;100659.41;4205023;28;20235;-68
2022/03/09 00:15:35;;;;;;;30.00;11.20;;;;;;;2.78;78.90;100658.94;4208865;28;25664;-67
2022/03/09 00:18:02;;;;;;;27.37;10.07;;;;;;;2.65;79.09;100654.41;4212285;28;20233;-69
2022/03/09 00:20:28;;;;;;;26.57;10.87;;;;;;;2.73;79.33;100662.66;4201157;28;20310;-69
2022/03/09 00:22:55;;;;;;;28.33;10.33;;;;;;;2.81;79.32;100656.97;4193136;28;20238;-69
2022/03/09 00:25:22;;;;;;;24.93;10.43;;;;;;;2.88;78.41;100666.19;4205487;28;20229;-68
2022/03/09 00:27:48;;;;;;;27.23;9.87;;;;;;;2.88;78.26;100666.19;4193863;28;21635;-67
2022/03/09 00:30:15;;;;;;;21.97;9.33;;;;;;;2.87;79.12;100663.66;4188340;28;21776;-67
2022/03/09 00:32:41;;;;;;;23.23;10.07;;;;;;;2.82;78.56;100665.72;4188361;28;20244;-67
2022/03/09 00:35:08;;;;;;;32.47;10.70;;;;;;;2.81;79.25;100669.25;4190263;28;20354;-67
2022/03/09 00:37:35;;;;;;;25.63;10.57;;;;;;;2.76;79.58;100674.78;4191877;28;20236;-66
2022/03/09 00:40:03;;;;;;;23.10;10.17;;;;;;;2.75;79.53;100670.47;4185898;28;21975;-67
2022/03/09 00:42:37;;;;;;;24.40;9.93;;;;;;;2.84;78.83;100664.69;4187824;28;20227;-68
2022/03/09 00:45:05;;;;;;;23.47;10.23;;;;;;;2.93;78.74;100664.13;4189121;28;20237;-67
2022/03/09 00:47:34;;;;;;;26.73;10.23;;;;;;;2.84;78.56;100669.09;4199391;28;20730;-67
2022/03/09 00:50:01;;;;;;;24.73;10.10;;;;;;;2.81;78.84;100656.97;4186696;28;20245;-67
2022/03/09 00:52:27;;;;;;;24.47;10.60;;;;;;;2.79;78.65;100656.22;4187644;28;22740;-69
2022/03/09 00:54:54;;;;;;;27.73;10.93;;;;;;;2.83;78.62;100657.72;4217139;28;20244;-68
2022/03/09 00:57:21;;;;;;;23.47;10.43;;;;;;;2.91;77.68;100658.13;4200124;28;20224;-68
2022/03/09 00:59:47;;;;;;;24.00;10.37;;;;;;;2.96;77.71;100658.69;4194869;28;23146;-67
2022/03/09 01:02:14;;;;;;;26.47;11.53;;;;;;;2.71;78.28;100659.28;4190012;28;20238;-67
2022/03/09 01:04:41;;;;;;;23.57;10.07;;;;;;;2.69;78.59;100660.31;4190135;28;22474;-67
2022/03/09 01:07:07;;;;;;;23.83;10.13;;;;;;;2.81;77.95;100653.47;4195346;28;25209;-67
2022/03/09 01:09:34;;;;;;;26.77;10.20;;;;;;;2.80;78.34;100655.28;4186021;28;20238;-66
2022/03/09 01:12:00;;;;;;;21.90;9.43;;;;;;;2.84;78.51;100654.16;4190909;28;20297;-67
2022/03/09 01:14:27;;;;;;;28.00;11.47;;;;;;;2.92;77.83;100656.34;4190230;28;20916;-69
2022/03/09 01:16:53;;;;;;;25.47;10.27;;;;;;;2.84;77.47;100650.69;4191432;28;20262;-67
2022/03/09 01:19:20;;;;;;;24.30;10.17;;;;;;;2.83;78.13;100651.63;4194443;28;20286;-68
2022/03/09 01:21:47;;;;;;;30.77;11.67;;;;;;;2.73;78.52;100646.06;4191760;28;20237;-68
2022/03/09 01:24:14;;;;;;;37.00;15.10;;;;;;;2.77;78.45;100637.06;4190921;28;20236;-68
2022/03/09 01:26:40;;;;;;;36.77;15.80;;;;;;;2.80;78.41;100636.03;4198545;28;20241;-68
2022/03/09 01:29:07;;;;;;;30.63;13.50;;;;;;;2.77;78.59;100634.44;4202844;28;20581;-68
2022/03/09 01:31:34;;;;;;;28.53;11.70;;;;;;;2.84;78.22;100641.03;4191585;28;23160;-68
2022/03/09 01:34:01;;;;;;;27.80;11.63;;;;;;;2.85;78.05;100640.06;4176197;28;21053;-68
2022/03/09 01:36:28;;;;;;;27.13;10.27;;;;;;;2.87;77.55;100640.84;4205407;28;22210;-67
2022/03/09 01:38:55;;;;;;;23.17;10.07;;;;;;;2.79;77.98;100642.25;4195219;28;21781;-67
2022/03/09 01:41:21;;;;;;;26.47;11.20;;;;;;;2.72;78.73;100641.75;4192069;28;20236;-67
2022/03/09 01:44:13;;;;;;;27.47;11.47;;;;;;;2.80;78.14;100631.63;4203868;28;20344;-67
2022/03/09 01:46:40;;;;;;;22.93;10.23;;;;;;;2.79;78.00;100645.72;4176768;28;24127;-69
2022/03/09 01:49:08;;;;;;;27.93;11.33;;;;;;;2.72;78.17;100639.97;4193348;28;20500;-66
2022/03/09 01:51:39;;;;;;;27.53;10.87;;;;;;;2.78;78.17;100644.00;4191966;28;22237;-67
2022/03/09 01:54:06;;;;;;;26.93;11.23;;;;;;;2.77;77.96;100634.44;4214859;28;20362;-68
2022/03/09 01:56:33;;;;;;;29.70;11.87;;;;;;;2.68;78.41;100632.34;4194576;28;20238;-67
2022/03/09 01:59:04;;;;;;;25.53;10.50;;;;;;;2.62;78.97;100628.31;4199541;28;20256;-66
2022/03/09 02:01:31;;;;;;;30.67;11.30;;;;;;;2.69;79.17;100634.91;4207132;28;20434;-68
2022/03/09 02:03:58;;;;;;;28.80;11.20;;;;;;;2.62;78.72;100637.94;4193849;28;20237;-68
2022/03/09 02:06:25;;;;;;;26.80;11.53;;;;;;;2.49;79.28;100633.41;4187945;28;20308;-67
2022/03/09 02:11:38;;;;;;;26.30;11.43;;;;;;;2.52;79.46;100627.97;4201021;28;21122;-66
2022/03/09 02:14:05;;;;;;;29.97;11.30;;;;;;;2.54;79.53;100622.63;4179464;28;21962;-68
2022/03/09 02:16:31;;;;;;;28.00;11.13;;;;;;;2.68;78.99;100606.06;4189043;28;21897;-67
2022/03/09 02:19:01;;;;;;;25.77;10.47;;;;;;;2.74;78.59;100608.34;4187520;28;23648;-66
2022/03/09 02:21:28;;;;;;;26.57;10.70;;;;;;;2.75;77.85;100615.28;4191678;28;20241;-68
2022/03/09 02:23:55;;;;;;;26.53;10.57;;;;;;;2.81;77.70;100607.06;4202980;28;20241;-67
2022/03/09 02:26:22;;;;;;;25.67;10.90;;;;;;;2.83;77.40;100607.78;4198997;28;21647;-68
2022/03/09 02:28:48;;;;;;;25.70;9.90;;;;;;;2.85;77.37;100611.16;4194325;28;22343;-67
2022/03/09 02:31:15;;;;;;;26.27;10.53;;;;;;;2.78;77.52;100612.47;4201569;28;20781;-67
2022/03/09 02:33:45;;;;;;;26.43;10.97;;;;;;;2.71;78.33;100614.59;4188178;28;20708;-67
2022/03/09 02:36:11;;;;;;;22.10;10.33;;;;;;;2.82;77.54;100619.25;4191961;28;20608;-68
2022/03/09 02:38:38;;;;;;;25.77;10.27;;;;;;;2.78;77.88;100620.34;4188952;28;20292;-67
2022/03/09 02:41:06;;;;;;;23.37;10.03;;;;;;;2.88;77.35;100625.91;4198512;28;20388;-66
2022/03/09 02:43:33;;;;;;;25.07;10.47;;;;;;;2.75;77.74;100625.78;4190000;28;20237;-68
2022/03/09 02:45:59;;;;;;;26.93;11.17;;;;;;;2.78;77.84;100619.50;4210613;28;20574;-69
2022/03/09 02:48:27;;;;;;;24.90;10.57;;;;;;;2.87;77.08;100622.44;4191161;28;20228;-66
2022/03/09 02:50:53;;;;;;;26.83;11.00;;;;;;;2.85;76.62;100626.94;4186407;28;20259;-68
2022/03/09 02:53:20;;;;;;;31.53;10.90;;;;;;;2.86;76.71;100625.19;4193548;28;20232;-68
2022/03/09 02:55:46;;;;;;;22.37;10.37;;;;;;;2.81;76.69;100617.56;4177392;28;20441;-67
2022/03/09 02:58:13;;;;;;;25.97;10.93;;;;;;;2.90;76.55;100616.16;4195724;28;20342;-66
2022/03/09 03:00:40;;;;;;;24.80;10.20;;;;;;;2.92;76.08;100617.75;4186779;28;20368;-67
2022/03/09 03:03:07;;;;;;;24.87;9.47;;;;;;;2.88;76.37;100611.00;4197481;28;20235;-68
2022/03/09 03:05:33;;;;;;;30.37;10.80;;;;;;;3.00;76.11;100611.19;4197822;28;20246;-67
2022/03/09 03:08:00;;;;;;;23.13;9.63;;;;;;;2.85;75.76;100608.53;4189097;28;20233;-67
2022/03/09 03:10:27;;;;;;;24.70;10.50;;;;;;;2.99;75.73;100614.75;4190893;28;20858;-67
2022/03/09 03:12:53;;;;;;;25.90;9.73;;;;;;;2.93;75.80;100610.72;4183084;28;20237;-68
2022/03/09 03:15:22;;;;;;;27.47;10.23;;;;;;;2.99;75.40;100609.50;4198528;28;20241;-69
2022/03/09 03:17:49;;;;;;;23.77;9.80;;;;;;;3.03;75.41;100608.38;4204442;28;20242;-67
2022/03/09 03:20:16;;;;;;;26.97;9.67;;;;;;;3.03;74.83;100600.50;4199090;28;20737;-68
2022/03/09 03:22:42;;;;;;;24.67;9.73;;;;;;;2.79;76.21;100597.56;4188761;28;21573;-66
2022/03/09 03:25:09;;;;;;;24.50;9.50;;;;;;;2.85;76.15;100592.78;4204219;28;20265;-68
2022/03/09 03:27:35;;;;;;;22.73;9.60;;;;;;;2.77;76.08;100596.81;4198896;28;20877;-67
2022/03/09 03:30:02;;;;;;;26.47;10.37;;;;;;;2.71;76.92;100600.63;4188135;28;20579;-67
2022/03/09 03:32:28;;;;;;;23.20;9.63;;;;;;;2.59;77.14;100598.72;4204622;28;20236;-67
2022/03/09 03:34:55;;;;;;;24.40;9.97;;;;;;;2.51;78.01;100594.78;4199731;28;21783;-68
2022/03/09 03:37:21;;;;;;;30.10;10.40;;;;;;;2.51;78.48;100600.03;4189610;28;20279;-67
2022/03/09 03:39:51;;;;;;;24.57;11.17;;;;;;;2.63;77.86;100598.47;4189836;28;20433;-67
2022/03/09 03:42:18;;;;;;;27.80;11.23;;;;;;;2.78;77.17;100595.88;4194729;28;20232;-66
2022/03/09 03:44:44;;;;;;;27.00;10.30;;;;;;;2.78;76.43;100607.22;4197478;28;20245;-69
2022/03/09 03:47:11;;;;;;;24.87;10.57;;;;;;;2.53;77.47;100603.41;4200994;28;21444;-68
2022/03/09 03:49:37;;;;;;;25.53;10.63;;;;;;;2.43;78.38;100599.59;4181815;28;20240;-68
2022/03/09 03:52:04;;;;;;;23.37;10.07;;;;;;;2.56;78.42;100598.91;4190303;28;20237;-66
2022/03/09 03:54:31;;;;;;;25.57;10.13;;;;;;;2.70;77.78;100597.16;4187541;28;21895;-68
2022/03/09 03:56:57;;;;;;;22.93;10.17;;;;;;;2.81;76.62;100590.41;4197110;28;20227;-67
2022/03/09 03:59:24;;;;;;;26.47;9.87;;;;;;;2.90;76.16;100585.47;4189534;28;20248;-66
2022/03/09 04:01:50;;;;;;;24.87;10.50;;;;;;;2.78;76.13;100585.34;4192911;28;20775;-68
2022/03/09 04:04:17;;;;;;;25.27;10.57;;;;;;;2.53;77.81;100581.56;4205274;28;20323;-67
2022/03/09 04:06:44;;;;;;;26.57;10.77;;;;;;;2.49;78.18;100585.28;4193468;28;20428;-67
2022/03/09 04:09:10;;;;;;;25.57;10.40;;;;;;;2.40;79.02;100593.72;4186621;28;20308;-68
2022/03/09 04:11:37;;;;;;;28.20;11.33;;;;;;;2.40;79.09;100591.91;4188508;28;20830;-68
2022/03/09 04:14:03;;;;;;;27.40;10.20;;;;;;;2.45;78.79;100600.38;4201056;28;20347;-67
2022/03/09 04:16:30;;;;;;;26.03;10.70;;;;;;;2.46;78.66;100607.34;4197805;28;20336;-68
2022/03/09 04:18:56;;;;;;;24.10;10.60;;;;;;;2.48;78.92;100609.84;4201164;28;20237;-67
2022/03/09 04:21:23;;;;;;;28.27;10.67;;;;;;;2.53;79.08;100606.03;4182931;28;21341;-68
2022/03/09 04:23:50;;;;;;;26.80;11.67;;;;;;;2.67;78.45;100604.38;4192461;28;20228;-67
2022/03/09 04:26:16;;;;;;;23.90;10.63;;;;;;;2.68;78.02;100598.19;4178209;28;20232;-68
2022/03/09 04:28:43;;;;;;;25.53;10.80;;;;;;;2.79;77.08;100594.94;4183844;28;21229;-69
2022/03/09 04:31:09;;;;;;;23.60;10.47;;;;;;;2.58;77.18;100591.81;4193686;28;20457;-68
2022/03/09 04:33:36;;;;;;;32.17;11.70;;;;;;;2.55;77.99;100595.41;4192211;28;20312;-69
2022/03/09 04:36:04;;;;;;;27.43;11.07;;;;;;;2.49;78.00;100596.63;4210532;28;20229;-67
2022/03/09 04:38:31;;;;;;;26.33;9.87;;;;;;;2.42;78.58;100592.69;4196184;28;21803;-69
2022/03/09 04:40:58;;;;;;;26.03;11.30;;;;;;;2.31;78.92;100597.69;4191735;28;20300;-68
2022/03/09 04:43:24;;;;;;;28.43;11.07;;;;;;;2.47;78.72;100598.50;4191637;28;20300;-68
2022/03/09 04:45:51;;;;;;;24.30;10.63;;;;;;;2.43;78.54;100586.47;4174787;28;20252;-68
2022/03/09 04:48:17;;;;;;;28.57;10.97;;;;;;;2.44;78.81;100582.94;4202865;28;20233;-68
2022/03/09 04:50:44;;;;;;;28.13;11.77;;;;;;;2.36;78.26;100587.78;4194374;28;20695;-67
2022/03/09 04:53:12;;;;;;;26.57;11.27;;;;;;;2.22;78.98;100590.34;4180033;28;20335;-68
2022/03/09 04:55:38;;;;;;;27.60;11.77;;;;;;;2.27;79.76;100597.03;4200341;28;20304;-69
2022/03/09 04:58:04;;;;;;;28.13;11.60;;;;;;;2.26;79.41;100592.72;4190650;28;23486;-68
2022/03/09 05:00:31;;;;;;;28.20;11.10;;;;;;;2.37;78.56;100604.41;4192194;28;20703;-67
2022/03/09 05:02:58;;;;;;;22.57;10.90;;;;;;;2.43;78.81;100601.41;4201568;28;20241;-67
2022/03/09 05:05:25;;;;;;;27.47;11.50;;;;;;;2.47;78.76;100601.13;4193014;28;20247;-67
2022/03/09 05:07:51;;;;;;;26.10;11.10;;;;;;;2.69;77.80;100600.75;4192294;28;20342;-68
2022/03/09 05:10:18;;;;;;;29.67;12.00;;;;;;;2.48;77.70;100605.47;4187920;28;21672;-67
2022/03/09 05:12:44;;;;;;;27.47;11.40;;;;;;;2.36;78.76;100615.81;4209306;28;20323;-68
2022/03/09 05:15:11;;;;;;;30.73;11.77;;;;;;;2.24;79.11;100620.81;4197555;28;22057;-69
2022/03/09 05:17:44;;;;;;;29.70;12.30;;;;;;;2.28;79.14;100629.41;4189660;28;20301;-68
2022/03/09 05:20:12;;;;;;;25.37;10.87;;;;;;;2.26;79.34;100634.72;4189403;28;24119;-68
2022/03/09 05:22:38;;;;;;;27.03;11.93;;;;;;;2.28;79.37;100630.22;4186710;28;22697;-69
2022/03/09 05:25:06;;;;;;;27.50;11.30;;;;;;;2.36;78.90;100636.81;4199136;28;22313;-67
2022/03/09 05:27:36;;;;;;;28.90;11.90;;;;;;;2.37;79.29;100643.78;4195966;28;20233;-68
2022/03/09 05:30:02;;;;;;;30.00;12.40;;;;;;;2.43;79.30;100644.25;4244666;28;20307;-69
2022/03/09 05:32:29;;;;;;;29.90;11.13;;;;;;;2.59;78.12;100638.13;4212832;28;20255;-71
2022/03/09 05:34:56;;;;;;;24.37;10.83;;;;;;;2.53;78.68;100645.44;4221305;28;20280;-71
2022/03/09 05:37:22;;;;;;;26.77;12.07;;;;;;;2.59;78.57;100653.91;4194412;28;20232;-71
2022/03/09 05:39:49;;;;;;;31.00;11.77;;;;;;;2.59;79.07;100653.91;4194111;28;20237;-71
2022/03/09 05:42:16;;;;;;;38.03;13.17;;;;;;;2.48;78.84;100657.13;4210824;28;22183;-70
2022/03/09 05:44:42;;;;;;;32.23;13.03;;;;;;;2.57;78.48;100661.03;4204019;28;20260;-70
2022/03/09 05:47:27;;;;;;;28.17;12.77;;;;;;;2.65;78.58;100664.06;4220463;28;23565;-71
2022/03/09 05:49:54;;;;;;;30.37;12.80;;;;;;;2.70;78.78;100654.13;4238022;28;20969;-71
2022/03/09 05:52:21;;;;;;;35.80;14.23;;;;;;;2.73;78.80;100656.56;4234760;28;20686;-70
2022/03/09 05:54:48;;;;;;;33.23;12.33;;;;;;;2.82;78.11;100656.03;4244842;28;23563;-70
2022/03/09 05:57:21;;;;;;;28.70;11.83;;;;;;;2.78;78.18;100659.78;4204054;28;21952;-69
2022/03/09 05:59:48;;;;;;;32.30;12.57;;;;;;;2.80;78.32;100667.56;4196764;28;20232;-71
2022/03/09 06:02:15;;;;;;;28.03;12.67;;;;;;;2.87;77.77;100669.75;4189720;28;21683;-69
2022/03/09 06:04:48;;;;;;;32.53;12.93;;;;;;;2.83;77.52;100667.38;4190617;28;20242;-70
2022/03/09 06:07:14;;;;;;;31.30;13.07;;;;;;;2.88;77.40;100666.19;4194122;28;20224;-69
2022/03/09 06:09:41;;;;;;;35.70;15.30;;;;;;;2.88;77.09;100666.19;4174949;28;20307;-70
2022/03/09 06:12:08;;;;;;;30.43;13.57;;;;;;;2.93;76.82;100661.50;4194115;28;25617;-70
2022/03/09 06:14:34;;;;;;;34.67;12.87;;;;;;;3.05;75.65;100665.19;4203812;28;20576;-68
2022/03/09 06:17:01;;;;;;;35.70;12.10;;;;;;;3.08;75.93;100672.88;4192625;28;20234;-69
2022/03/09 06:19:27;;;;;;;28.83;12.63;;;;;;;3.13;75.57;100667.34;4193927;28;20232;-68
2022/03/09 06:21:54;;;;;;;26.20;11.17;;;;;;;3.14;75.74;100669.06;4184512;28;20618;-69
2022/03/09 06:24:22;;;;;;;25.77;11.03;;;;;;;3.21;74.74;100659.00;4192947;28;20286;-68
2022/03/09 06:26:48;;;;;;;28.60;11.70;;;;;;;3.19;74.08;100672.25;4199640;28;20282;-68
2022/03/09 06:29:15;;;;;;;30.90;12.10;;;;;;;2.98;74.27;100669.13;4190648;28;20681;-70
2022/03/09 06:31:44;;;;;;;28.67;11.77;;;;;;;3.07;73.91;100671.22;4186850;28;20300;-68
2022/03/09 06:34:11;;;;;;;27.90;11.10;;;;;;;3.23;73.58;100675.53;4206693;28;20244;-70
2022/03/09 06:36:42;;;;;;;27.13;11.67;;;;;;;3.17;73.30;100676.75;4195036;28;20236;-70
2022/03/09 06:39:09;;;;;;;25.53;10.80;;;;;;;2.94;73.27;100684.22;4205382;28;20287;-70
2022/03/09 06:41:36;;;;;;;27.40;11.70;;;;;;;2.87;73.14;100679.41;4186245;28;20241;-70
2022/03/09 06:44:03;;;;;;;29.47;11.43;;;;;;;2.93;72.84;100679.91;4199802;28;21233;-69
2022/03/09 06:46:29;;;;;;;33.87;12.30;;;;;;;3.13;72.71;100686.59;4199022;28;20236;-69
2022/03/09 06:48:58;;;;;;;28.67;10.57;;;;;;;3.26;73.41;100696.41;4200003;28;20304;-70
2022/03/09 06:51:25;;;;;;;27.63;11.40;;;;;;;3.30;71.95;100692.63;4188856;28;20241;-70
2022/03/09 06:53:51;;;;;;;29.13;11.57;;;;;;;3.33;71.72;100690.69;4208783;28;20305;-69
2022/03/09 06:56:18;;;;;;;31.23;10.93;;;;;;;3.40;70.99;100687.69;4188230;28;20308;-71
2022/03/09 06:58:45;;;;;;;26.80;10.67;;;;;;;3.55;70.49;100686.75;4235934;28;20278;-71
2022/03/09 07:01:12;;;;;;;26.20;10.50;;;;;;;3.72;69.47;100686.56;4226193;28;20237;-68
2022/03/09 07:03:39;;;;;;;22.00;9.73;;;;;;;3.68;67.46;100689.50;4202312;28;20707;-66
2022/03/09 07:06:11;;;;;;;23.43;9.70;;;;;;;3.87;68.53;100687.41;4213931;28;20300;-68
2022/03/09 07:08:38;;;;;;;26.87;9.40;;;;;;;4.02;66.94;100685.59;4198855;28;20240;-68
2022/03/09 07:11:05;;;;;;;22.70;9.07;;;;;;;4.35;65.96;100687.00;4187206;28;21341;-66
2022/03/09 07:13:31;;;;;;;23.80;9.03;;;;;;;4.50;65.93;100686.03;4188864;28;21573;-70
2022/03/09 07:15:58;;;;;;;19.80;8.43;;;;;;;4.79;63.70;100685.91;4186498;28;20236;-68
2022/03/09 07:18:25;;;;;;;23.23;8.60;;;;;;;4.88;62.33;100690.56;4178549;28;20639;-68
2022/03/09 07:20:52;;;;;;;24.37;9.30;;;;;;;5.29;60.79;100690.41;4187181;28;21301;-69
2022/03/09 07:23:19;;;;;;;26.70;8.23;;;;;;;5.25;59.36;100688.94;4215850;28;20236;-69
2022/03/09 07:25:45;;;;;;;28.37;8.53;;;;;;;5.15;60.06;100681.72;4198566;28;23740;-67
2022/03/09 07:28:12;;;;;;;16.70;6.97;;;;;;;5.12;60.10;100687.22;4186653;28;21373;-68
2022/03/09 07:30:39;;;;;;;21.50;7.77;;;;;;;5.03;59.41;100679.00;4196386;28;21808;-69
2022/03/09 07:33:12;;;;;;;19.67;8.00;;;;;;;4.90;59.36;100678.13;4202776;28;20250;-68
2022/03/09 07:35:38;;;;;;;21.27;8.20;;;;;;;4.90;59.82;100667.56;4204278;28;20232;-68
2022/03/09 07:38:06;;;;;;;23.30;7.60;;;;;;;5.08;60.67;100666.34;4200742;28;20246;-69
2022/03/09 07:40:32;;;;;;;19.83;7.60;;;;;;;5.07;58.71;100672.56;4188326;28;27052;-70
2022/03/09 07:42:59;;;;;;;16.63;6.90;;;;;;;5.25;58.31;100667.81;4187621;28;20278;-67
2022/03/09 07:45:25;;;;;;;18.50;6.83;;;;;;;5.37;56.67;100670.56;4190870;28;20233;-67
2022/03/09 07:47:52;;;;;;;24.80;8.00;;;;;;;5.49;56.79;100670.56;4189743;28;25339;-69
2022/03/09 07:50:18;;;;;;;17.07;6.50;;;;;;;5.32;56.21;100676.16;4189407;28;20245;-67
2022/03/09 07:52:45;;;;;;;18.63;6.27;;;;;;;5.00;56.72;100665.16;4195709;28;21447;-68
2022/03/09 07:55:11;;;;;;;14.90;5.53;;;;;;;5.26;57.07;100663.38;4170953;28;20345;-67
2022/03/09 07:57:38;;;;;;;17.43;6.23;;;;;;;5.46;56.15;100660.22;4200474;28;20241;-66
2022/03/09 08:00:06;;;;;;;16.60;6.10;;;;;;;5.60;55.64;100653.97;4205295;28;20229;-67
2022/03/09 08:02:33;;;;;;;14.57;5.27;;;;;;;5.77;54.55;100663.34;4203746;28;20237;-68
2022/03/09 08:05:00;;;;;;;13.47;5.60;;;;;;;5.91;55.01;100660.56;4256892;28;20262;-68
2022/03/09 08:07:27;;;;;;;22.07;6.00;;;;;;;6.00;54.09;100661.75;4261561;28;20382;-67
2022/03/09 08:09:56;;;;;;;14.57;5.20;;;;;;;5.96;52.58;100656.78;4279362;28;20417;-67
2022/03/09 08:12:27;;;;;;;12.97;5.27;;;;;;;5.79;52.33;100664.09;4229908;28;20359;-67
2022/03/09 08:14:53;;;;;;;13.80;5.67;;;;;;;5.70;52.94;100665.56;4233665;28;21445;-67
2022/03/09 08:17:20;;;;;;;11.33;4.77;;;;;;;5.61;53.53;100670.66;4200238;28;20445;-67
2022/03/09 08:19:47;;;;;;;13.40;5.73;;;;;;;5.71;53.91;100676.97;4213451;28;20235;-67
2022/03/09 08:22:14;;;;;;;12.60;5.20;;;;;;;5.74;52.69;100679.41;4189867;28;21873;-68
2022/03/09 08:24:41;;;;;;;14.97;5.07;;;;;;;5.73;53.36;100675.06;4208747;28;20282;-67
2022/03/09 08:27:07;;;;;;;14.00;5.17;;;;;;;5.82;51.86;100674.44;4230307;28;20244;-65
2022/03/09 08:29:34;;;;;;;15.37;5.03;;;;;;;5.82;52.94;100674.44;4244462;28;20304;-69
2022/03/09 08:32:00;;;;;;;14.53;5.67;;;;;;;6.14;51.84;100671.31;4207902;28;20278;-68
2022/03/09 08:34:27;;;;;;;12.03;4.87;;;;;;;6.28;51.61;100671.16;4204522;28;20706;-66
2022/03/09 08:36:54;;;;;;;18.63;6.00;;;;;;;6.35;51.80;100676.84;4213323;28;20239;-67
2022/03/09 08:39:20;;;;;;;13.40;5.20;;;;;;;6.57;51.01;100670.81;4196795;28;20233;-67
2022/03/09 08:41:50;;;;;;;18.00;5.07;;;;;;;6.58;50.25;100675.19;4212690;28;20413;-66
2022/03/09 08:44:37;;;;;;;19.13;6.10;;;;;;;6.59;50.14;100676.84;4213398;28;20231;-68
2022/03/09 08:47:04;;;;;;;18.13;5.50;;;;;;;6.52;50.21;100686.19;4237031;28;22053;-65
2022/03/09 08:49:33;;;;;;;13.70;4.90;;;;;;;6.43;49.68;100681.56;4185373;28;20234;-68
2022/03/09 08:51:59;;;;;;;15.30;4.10;;;;;;;6.51;49.55;100684.50;4208768;28;25073;-68
2022/03/09 08:54:27;;;;;;;16.17;4.70;;;;;;;6.87;49.55;100680.09;4191355;28;20614;-67
2022/03/09 08:56:53;;;;;;;12.43;4.37;;;;;;;6.90;49.48;100682.50;4183658;28;20256;-69
2022/03/09 08:59:21;;;;;;;15.30;4.03;;;;;;;6.73;49.35;100684.59;4185162;28;20303;-68
2022/03/09 09:01:48;;;;;;;12.20;4.37;;;;;;;6.96;49.36;100684.69;4182017;28;20992;-65
2022/03/09 09:04:20;;;;;;;10.70;4.20;;;;;;;6.91;48.80;100681.56;4186197;28;20236;-71
2022/03/09 09:06:47;;;;;;;12.20;4.20;;;;;;;6.97;48.00;100687.19;4192381;28;20232;-68
2022/03/09 09:09:17;;;;;;;8.53;3.47;;;;;;;6.96;46.68;100687.34;4181620;28;23051;-68
2022/03/09 09:11:45;;;;;;;11.80;3.53;;;;;;;6.97;47.52;100691.66;4198420;28;20386;-69
2022/03/09 09:14:11;;;;;;;13.17;3.37;;;;;;;6.79;47.61;100693.03;4181727;28;20234;-68
2022/03/09 09:16:43;;;;;;;7.63;2.77;;;;;;;6.65;47.63;100692.28;4205879;28;20261;-68
2022/03/09 09:19:10;;;;;;;8.27;2.60;;;;;;;6.32;48.66;100682.34;4192837;28;20239;-70
2022/03/09 09:21:37;;;;;;;5.87;2.50;;;;;;;6.60;48.42;100689.09;4191533;28;20238;-68
2022/03/09 09:24:05;;;;;;;6.17;2.33;;;;;;;6.94;48.08;100691.91;4191320;28;20312;-70
2022/03/09 09:26:32;;;;;;;5.13;2.60;;;;;;;7.22;47.23;100689.81;4204428;28;20231;-69
2022/03/09 09:29:13;;;;;;;5.40;2.33;;;;;;;7.28;46.62;100691.97;4179707;28;20287;-68
2022/03/09 09:31:40;;;;;;;5.67;2.43;;;;;;;7.06;45.74;100688.31;4189316;28;21283;-68
2022/03/09 09:34:10;;;;;;;6.27;2.63;;;;;;;7.08;46.45;100683.75;4181281;28;20252;-67
2022/03/09 09:36:39;;;;;;;7.80;2.50;;;;;;;7.17;46.45;100680.41;4183231;28;20229;-69
2022/03/09 09:39:05;;;;;;;9.47;3.13;;;;;;;7.36;46.00;100681.66;4179751;28;21381;-70
2022/03/09 09:41:33;;;;;;;4.50;2.00;;;;;;;7.54;45.84;100682.88;4185647;28;21223;-71
2022/03/09 09:44:03;;;;;;;11.17;2.33;;;;;;;7.79;45.94;100686.25;4201480;28;20235;-71
2022/03/09 09:46:29;;;;;;;11.60;2.67;;;;;;;7.66;45.24;100691.66;4186596;28;20266;-65
2022/03/09 09:48:57;;;;;;;9.17;2.60;;;;;;;7.46;45.77;100687.06;4192503;28;25332;-67
2022/03/09 09:51:23;;;;;;;10.30;2.33;;;;;;;7.43;44.94;100692.63;4190939;28;20234;-70
2022/03/09 09:53:50;;;;;;;7.33;2.40;;;;;;;7.51;45.83;100691.03;4190425;28;21533;-66
2022/03/09 09:56:17;;;;;;;7.17;2.40;;;;;;;7.73;45.82;100694.69;4197204;28;20985;-66
2022/03/09 09:58:44;;;;;;;8.20;2.53;;;;;;;7.63;43.88;100701.66;4199944;28;20228;-69
2022/03/09 10:01:11;;;;;;;5.80;2.30;;;;;;;7.28;44.59;100703.44;4186913;28;20225;-70
2022/03/09 10:03:38;;;;;;;6.83;2.13;;;;;;;7.51;45.74;100701.63;4176498;28;21798;-71
2022/03/09 10:06:05;;;;;;;5.27;2.20;;;;;;;7.83;44.95;100711.53;4204862;28;20735;-70
2022/03/09 10:08:35;;;;;;;5.77;3.17;;;;;;;8.06;44.59;100701.78;4195419;28;20224;-70
2022/03/09 10:11:03;;;;;;;6.80;2.60;;;;;;;8.16;44.96;100701.88;4194517;28;24088;-70
2022/03/09 10:13:31;;;;;;;6.77;2.80;;;;;;;7.95;44.53;100699.13;4197057;28;20984;-73
2022/03/09 10:16:13;;;;;;;7.30;2.90;;;;;;;8.12;45.19;100709.22;4199102;28;20249;-72
2022/03/09 10:18:56;;;;;;;8.27;2.80;;;;;;;8.33;44.68;100709.31;4193225;28;22353;-73
2022/03/09 10:21:28;;;;;;;6.50;2.50;;;;;;;8.45;43.89;100708.38;4197621;28;20236;-73
2022/03/09 10:24:01;;;;;;;10.10;3.20;;;;;;;8.32;43.25;100715.59;4208514;28;20782;-71
2022/03/09 10:26:45;;;;;;;9.83;2.73;;;;;;;7.81;44.22;100714.28;4192734;28;23389;-73
2022/03/09 10:29:14;;;;;;;8.57;3.03;;;;;;;7.85;44.47;100704.31;4183028;28;20237;-70
2022/03/09 10:31:46;;;;;;;8.70;3.07;;;;;;;7.93;44.53;100704.53;4191236;28;20223;-71
2022/03/09 10:34:20;;;;;;;10.60;2.83;;;;;;;7.82;43.99;100709.88;4208166;28;20233;-72
2022/03/09 10:36:54;;;;;;;6.80;2.40;;;;;;;7.61;43.71;100709.72;4194507;28;20399;-72
2022/03/09 10:39:22;;;;;;;5.70;2.17;;;;;;;7.21;44.50;100709.28;4188796;28;20307;-71
2022/03/09 10:41:49;;;;;;;4.13;2.23;;;;;;;7.30;44.63;100701.47;4197730;28;20268;-75
2022/03/09 10:44:16;;;;;;;5.33;1.90;;;;;;;7.29;44.67;100701.63;4183358;28;21028;-72
2022/03/09 10:46:50;;;;;;;6.57;2.10;;;;;;;7.42;44.57;100702.34;4183643;28;20405;-74
2022/03/09 10:49:21;;;;;;;8.67;2.07;;;;;;;7.40;44.61;100704.28;4191698;28;22025;-70
2022/03/09 10:51:50;;;;;;;5.43;2.20;;;;;;;7.28;44.94;100703.44;4194095;28;20229;-71
2022/03/09 10:54:27;;;;;;;6.80;2.03;;;;;;;7.16;45.72;100691.09;4206984;28;20243;-71
2022/03/09 10:57:07;;;;;;;5.97;2.60;;;;;;;7.35;45.89;100698.47;4212723;28;20227;-70
2022/03/09 10:59:51;;;;;;;4.77;2.10;;;;;;;7.50;45.58;100702.59;4198080;28;20238;-73
2022/03/09 11:02:19;;;;;;;4.03;2.17;;;;;;;7.47;45.34;100694.91;4247864;28;20677;-74
2022/03/09 11:05:09;;;;;;;8.50;2.20;;;;;;;7.65;45.33;100692.63;4210093;28;20259;-71
2022/03/09 11:07:37;;;;;;;7.13;2.23;;;;;;;7.83;45.55;100691.19;4238774;28;23008;-74
2022/03/09 11:10:05;;;;;;;5.73;2.23;;;;;;;7.81;44.75;100692.25;4194778;28;20281;-72
2022/03/09 11:12:32;;;;;;;5.43;2.03;;;;;;;7.88;45.55;100693.47;4217743;28;20354;-73
2022/03/09 11:15:05;;;;;;;4.33;2.00;;;;;;;7.61;46.12;100692.03;4242529;28;20299;-73
2022/03/09 11:17:33;;;;;;;9.07;2.27;;;;;;;7.77;45.34;100690.81;4229633;28;21824;-75
2022/03/09 11:19:59;;;;;;;6.13;2.40;;;;;;;7.63;46.02;100685.75;4231170;28;20283;-73
2022/03/09 11:22:26;;;;;;;6.13;2.57;;;;;;;7.79;46.20;100694.19;4249522;28;20263;-73
2022/03/09 11:24:53;;;;;;;9.33;2.70;;;;;;;8.22;46.04;100693.44;4261283;28;21836;-72
2022/03/09 11:27:20;;;;;;;6.37;2.47;;;;;;;8.43;44.55;100697.03;4233534;28;21121;-72